Time;durP1;ratioP1;P1;durP2;ratioP2;P2;SDS_P1;SDS_P2;PMS_P1;PMS_P2;Temp;Humidity;BMP_temperature;BMP_pressure;BME280_temperature;BME280_humidity;BME280_pressure;Samples;Min_cycle;Max_cycle;Signal;HPM_P1;HPM_P2
2023/07/08 00:01:41;;;;;;;4.15;2.92;;;;;;;19.74;100.00;101662.56;5056414;28;20078;-47
2023/07/08 00:04:07;;;;;;;4.35;2.83;;;;;;;19.73;100.00;101657.31;5074213;28;20056;-48
2023/07/08 00:06:34;;;;;;;3.50;2.88;;;;;;;19.69;100.00;101669.13;5073044;28;20032;-47
2023/07/08 00:08:59;;;;;;;3.78;3.00;;;;;;;19.36;100.00;101608.63;5056153;28;20047;-49
2023/07/08 00:11:25;;;;;;;4.95;2.95;;;;;;;19.24;100.00;101589.75;5073701;28;20056;-50
2023/07/08 00:13:50;;;;;;;7.13;2.60;;;;;;;19.14;100.00;101583.25;5055535;28;20422;-51
2023/07/08 00:16:18;;;;;;;5.85;2.97;;;;;;;19.45;100.00;101642.84;5073913;28;20124;-44
2023/07/08 00:18:44;;;;;;;5.78;3.28;;;;;;;19.40;100.00;101649.41;5073978;28;20036;-47
2023/07/08 00:21:15;;;;;;;4.38;3.17;;;;;;;19.27;100.00;101638.50;5055800;28;20047;-49
2023/07/08 00:23:45;;;;;;;3.95;3.20;;;;;;;18.89;100.00;101573.06;5037689;28;20082;-46
2023/07/08 00:26:15;;;;;;;7.60;3.05;;;;;;;19.23;100.00;101638.78;5035970;28;20064;-49
2023/07/08 00:28:41;;;;;;;7.10;3.45;;;;;;;19.16;100.00;101638.25;5036108;28;20036;-47
2023/07/08 00:31:13;;;;;;;5.97;3.30;;;;;;;18.71;100.00;101574.94;5053932;28;20025;-51
2023/07/08 00:33:39;;;;;;;4.75;2.88;;;;;;;18.78;100.00;101583.47;5053814;28;20074;-48
2023/07/08 00:36:10;;;;;;;3.40;3.10;;;;;;;18.76;100.00;101599.56;5053689;28;20419;-48
2023/07/08 00:38:35;;;;;;;3.17;2.67;;;;;;;18.58;100.00;101563.22;5035397;28;20033;-50
2023/07/08 00:41:06;;;;;;;3.45;2.90;;;;;;;18.94;100.00;101638.56;5071813;28;20044;-49
2023/07/08 00:43:38;;;;;;;5.57;3.05;;;;;;;18.94;100.00;101637.72;5072414;28;20039;-47
2023/07/08 00:46:23;;;;;;;4.07;3.25;;;;;;;18.89;100.00;101632.59;5071689;28;20036;-46
2023/07/08 00:48:49;;;;;;;5.43;3.05;;;;;;;18.86;100.00;101629.25;5072664;28;20033;-47
2023/07/08 00:51:17;;;;;;;4.40;2.92;;;;;;;18.82;100.00;101622.38;5070777;28;20089;-46
2023/07/08 00:53:43;;;;;;;4.28;2.95;;;;;;;18.79;100.00;101631.41;5071950;28;20095;-48
2023/07/08 00:56:29;;;;;;;6.43;3.53;;;;;;;18.79;100.00;101617.19;5071637;28;20089;-47
2023/07/08 00:59:03;;;;;;;3.45;2.78;;;;;;;18.74;100.00;101614.75;5054107;28;20127;-46
2023/07/08 01:01:30;;;;;;;5.88;3.10;;;;;;;18.65;100.00;101604.59;5072853;28;20033;-47
2023/07/08 01:04:01;;;;;;;3.25;2.70;;;;;;;18.67;100.00;101608.06;5055429;28;20044;-49
2023/07/08 01:06:31;;;;;;;6.38;3.35;;;;;;;18.22;100.00;101536.69;5073154;28;20036;-48
2023/07/08 01:08:57;;;;;;;2.90;2.60;;;;;;;18.54;100.00;101601.63;5067241;28;20033;-46
2023/07/08 01:11:22;;;;;;;3.65;2.60;;;;;;;18.48;100.00;101599.25;5051527;28;20500;-47
2023/07/08 01:13:48;;;;;;;3.92;2.97;;;;;;;18.47;100.00;101603.75;5052698;28;20205;-46
2023/07/08 01:16:14;;;;;;;5.07;3.22;;;;;;;18.47;100.00;101609.09;5034897;28;20029;-49
2023/07/08 01:18:41;;;;;;;5.15;2.50;;;;;;;18.13;100.00;101554.94;5052886;28;20551;-46
2023/07/08 01:21:34;;;;;;;6.50;3.08;;;;;;;18.42;100.00;101602.25;5053081;28;20065;-45
2023/07/08 01:24:01;;;;;;;2.97;2.67;;;;;;;17.92;100.00;101527.66;5052638;28;20033;-47
2023/07/08 01:26:26;;;;;;;4.43;3.00;;;;;;;18.37;100.00;101598.97;5034221;28;20404;-49
2023/07/08 01:28:55;;;;;;;4.25;3.38;;;;;;;18.35;100.00;101601.75;5051373;28;20128;-46
2023/07/08 01:31:22;;;;;;;6.35;2.95;;;;;;;18.15;100.00;101564.63;5052403;28;20365;-49
2023/07/08 01:33:47;;;;;;;5.00;2.90;;;;;;;18.31;100.00;101605.50;5051534;28;20040;-47
2023/07/08 01:36:12;;;;;;;5.30;2.80;;;;;;;17.89;100.00;101531.31;5034869;28;20439;-47
2023/07/08 01:38:38;;;;;;;5.53;2.92;;;;;;;18.27;100.00;101600.41;5052250;28;20083;-46
2023/07/08 01:41:04;;;;;;;3.17;2.80;;;;;;;18.21;100.00;101600.72;5034611;28;20361;-47
2023/07/08 01:43:29;;;;;;;4.85;3.20;;;;;;;17.74;100.00;101526.78;5050581;28;20404;-44
2023/07/08 01:45:56;;;;;;;7.32;3.28;;;;;;;18.12;100.00;101587.88;5051081;28;20436;-47
2023/07/08 01:48:23;;;;;;;5.22;3.20;;;;;;;18.15;100.00;101593.06;5034601;28;20061;-48
2023/07/08 01:50:57;;;;;;;7.35;3.20;;;;;;;18.12;100.00;101593.22;5034406;28;20116;-46
2023/07/08 01:53:48;;;;;;;3.10;2.90;;;;;;;18.08;100.00;101596.97;5051929;28;20036;-45
2023/07/08 01:56:14;;;;;;;6.10;3.30;;;;;;;17.99;100.00;101574.31;5051012;28;20049;-47
2023/07/08 01:58:40;;;;;;;3.53;2.83;;;;;;;18.02;100.00;101581.28;5047665;28;20032;-46
2023/07/08 02:01:06;;;;;;;5.68;3.60;;;;;;;17.45;100.00;101484.78;5072201;28;20436;-45
2023/07/08 02:03:31;;;;;;;3.75;3.10;;;;;;;17.90;100.00;101570.34;5053772;28;20341;-50
2023/07/08 02:05:57;;;;;;;6.43;3.20;;;;;;;17.38;100.00;101494.88;5053885;28;20300;-48
2023/07/08 02:08:23;;;;;;;3.50;3.20;;;;;;;17.43;100.00;101495.50;5053979;28;20471;-48
2023/07/08 02:10:55;;;;;;;3.75;2.72;;;;;;;17.44;100.00;101507.00;5074956;28;20052;-49
2023/07/08 02:13:21;;;;;;;5.22;3.00;;;;;;;17.44;100.00;101513.19;5060645;28;20045;-46
2023/07/08 02:15:47;;;;;;;4.15;3.10;;;;;;;17.72;100.00;101567.72;5060741;28;20055;-47
2023/07/08 02:18:13;;;;;;;3.55;2.92;;;;;;;17.63;100.00;101555.75;5058329;28;20066;-49
2023/07/08 02:20:38;;;;;;;4.50;3.45;;;;;;;17.61;100.00;101554.09;5058477;28;20041;-46
2023/07/08 02:23:03;;;;;;;4.90;3.10;;;;;;;17.57;100.00;101557.88;5058194;28;20064;-47
2023/07/08 02:25:29;;;;;;;5.10;2.92;;;;;;;17.53;100.00;101561.56;5058157;28;20141;-47
2023/07/08 02:27:56;;;;;;;5.70;3.25;;;;;;;16.91;100.00;101461.75;5058646;28;20496;-47
2023/07/08 02:30:25;;;;;;;4.85;2.78;;;;;;;16.74;100.00;101429.81;5056907;28;20029;-46
2023/07/08 02:32:59;;;;;;;5.18;3.63;;;;;;;17.42;100.00;101549.66;5057115;28;20400;-45
2023/07/08 02:35:29;;;;;;;4.20;3.03;;;;;;;17.38;100.00;101542.78;5058346;28;20041;-48
2023/07/08 02:37:55;;;;;;;6.47;3.40;;;;;;;17.02;100.00;101482.50;5040734;28;20053;-46
2023/07/08 02:40:22;;;;;;;4.07;3.20;;;;;;;17.00;100.00;101477.28;5057455;28;20029;-47
2023/07/08 02:42:47;;;;;;;3.47;3.15;;;;;;;17.27;100.00;101530.94;5058691;28;20108;-46
2023/07/08 02:45:13;;;;;;;4.93;3.92;;;;;;;16.96;100.00;101477.50;5058405;28;20112;-49
2023/07/08 02:47:39;;;;;;;5.05;3.05;;;;;;;17.29;100.00;101526.38;5057604;28;20036;-45
2023/07/08 02:50:05;;;;;;;6.65;3.78;;;;;;;17.24;100.00;101539.94;5058371;28;20041;-47
2023/07/08 02:52:30;;;;;;;4.10;3.30;;;;;;;16.70;100.00;101442.38;5058803;28;20033;-47
2023/07/08 02:54:55;;;;;;;5.20;3.63;;;;;;;17.18;100.00;101532.25;5057098;28;20098;-46
2023/07/08 02:57:21;;;;;;;6.38;3.35;;;;;;;17.14;100.00;101533.31;5058760;28;20045;-46
2023/07/08 02:59:46;;;;;;;5.18;3.42;;;;;;;16.69;100.00;101469.06;5058422;28;20091;-46
2023/07/08 03:02:11;;;;;;;3.60;3.30;;;;;;;16.60;100.00;101461.53;5058236;28;20121;-46
2023/07/08 03:04:39;;;;;;;5.65;4.18;;;;;;;16.60;100.00;101478.34;5058004;28;20044;-48
2023/07/08 03:07:05;;;;;;;5.45;3.70;;;;;;;16.90;100.00;101528.34;5058196;28;20538;-49
2023/07/08 03:09:32;;;;;;;4.20;3.80;;;;;;;16.47;100.00;101463.84;5058308;28;20044;-46
2023/07/08 03:11:57;;;;;;;5.32;3.70;;;;;;;16.67;100.00;101503.69;5058091;28;20520;-47
2023/07/08 03:14:23;;;;;;;5.28;4.22;;;;;;;16.44;100.00;101471.97;5057945;28;20033;-46
2023/07/08 03:16:48;;;;;;;6.13;3.80;;;;;;;16.38;100.00;101458.97;5057361;28;20069;-48
2023/07/08 03:19:15;;;;;;;4.13;3.78;;;;;;;16.41;100.00;101471.25;5057503;28;20041;-48
2023/07/08 03:21:40;;;;;;;4.10;3.67;;;;;;;16.70;100.00;101516.81;5056902;28;20472;-54
2023/07/08 03:24:10;;;;;;;5.93;3.92;;;;;;;16.69;100.00;101531.06;5054371;28;20036;-47
2023/07/08 03:26:36;;;;;;;5.85;3.58;;;;;;;16.22;100.00;101457.97;5037384;28;20029;-49
2023/07/08 03:29:02;;;;;;;5.30;3.90;;;;;;;16.26;100.00;101473.69;5054986;28;20052;-47
2023/07/08 03:31:27;;;;;;;4.80;3.83;;;;;;;16.58;100.00;101537.81;5054527;28;20029;-49
2023/07/08 03:33:52;;;;;;;4.13;3.60;;;;;;;16.16;100.00;101467.06;5054484;28;20033;-46
2023/07/08 03:36:24;;;;;;;4.68;4.15;;;;;;;16.56;100.00;101544.97;5054697;28;20396;-49
2023/07/08 03:38:55;;;;;;;5.88;3.90;;;;;;;16.39;100.00;101519.16;5057512;28;20040;-47
2023/07/08 03:41:21;;;;;;;5.20;3.50;;;;;;;16.51;100.00;101544.31;5075212;28;20037;-49
2023/07/08 03:43:47;;;;;;;5.53;4.43;;;;;;;16.55;100.00;101546.78;5073435;28;20468;-49
2023/07/08 03:46:16;;;;;;;4.43;4.00;;;;;;;16.09;100.00;101483.34;5074652;28;20124;-46
2023/07/08 03:48:41;;;;;;;6.28;4.13;;;;;;;16.11;100.00;101479.69;5074647;28;20043;-48
2023/07/08 03:51:13;;;;;;;4.55;3.53;;;;;;;16.03;100.00;101465.88;5074703;28;20076;-47
2023/07/08 03:53:38;;;;;;;5.10;4.18;;;;;;;16.43;100.00;101544.66;5073343;28;20078;-46
2023/07/08 03:56:04;;;;;;;4.72;4.03;;;;;;;16.43;100.00;101546.44;5072757;28;20040;-46
2023/07/08 03:58:29;;;;;;;6.10;4.32;;;;;;;16.40;100.00;101541.28;5074433;28;20076;-49
2023/07/08 04:00:55;;;;;;;5.47;4.75;;;;;;;16.11;100.00;101494.78;5056547;28;20043;-46
2023/07/08 04:03:20;;;;;;;4.68;3.78;;;;;;;16.01;100.00;101473.06;5074495;28;20043;-48
2023/07/08 04:05:45;;;;;;;5.38;4.10;;;;;;;16.42;100.00;101547.38;5074014;28;20032;-48
2023/07/08 04:08:11;;;;;;;5.50;4.20;;;;;;;16.39;100.00;101543.06;5074242;28;20067;-50
2023/07/08 04:10:36;;;;;;;4.95;4.22;;;;;;;16.42;100.00;101539.41;5074121;28;20049;-48
2023/07/08 04:13:01;;;;;;;4.80;4.30;;;;;;;15.99;100.00;101477.59;5072736;28;20051;-51
2023/07/08 04:15:28;;;;;;;5.28;4.20;;;;;;;16.06;100.00;101478.16;5073649;28;20056;-49
2023/07/08 04:17:55;;;;;;;5.32;3.58;;;;;;;16.45;100.00;101537.47;5073953;28;20041;-48
2023/07/08 04:20:21;;;;;;;5.40;4.28;;;;;;;16.38;100.00;101532.50;5072952;28;20024;-49
2023/07/08 04:22:46;;;;;;;5.55;3.90;;;;;;;16.39;100.00;101537.75;5074067;28;20033;-48
2023/07/08 04:25:13;;;;;;;5.55;4.05;;;;;;;16.50;100.00;101558.50;5072586;28;20101;-45
2023/07/08 04:27:39;;;;;;;4.55;4.10;;;;;;;16.51;100.00;101555.81;5055820;28;20043;-48
2023/07/08 04:30:06;;;;;;;5.78;4.55;;;;;;;16.53;100.00;101561.03;5068798;28;20403;-47
2023/07/08 04:32:31;;;;;;;4.45;4.05;;;;;;;16.07;100.00;101467.50;5052333;28;20388;-47
2023/07/08 04:34:56;;;;;;;5.38;4.22;;;;;;;16.52;100.00;101560.16;5053386;28;20036;-49
2023/07/08 04:37:22;;;;;;;5.07;3.90;;;;;;;16.12;100.00;101484.06;5035760;28;20098;-45
2023/07/08 04:39:47;;;;;;;6.20;4.38;;;;;;;16.48;100.00;101542.66;5035836;28;20566;-47
2023/07/08 04:42:15;;;;;;;5.43;4.93;;;;;;;16.27;100.00;101504.63;5053439;28;20029;-48
2023/07/08 04:44:41;;;;;;;6.05;4.22;;;;;;;16.58;100.00;101536.00;5035370;28;20447;-48
2023/07/08 04:47:08;;;;;;;4.25;3.90;;;;;;;16.40;100.00;101512.03;5042438;28;20388;-50
2023/07/08 04:49:34;;;;;;;6.22;4.20;;;;;;;16.29;100.00;101496.56;5073408;28;20052;-47
2023/07/08 04:51:59;;;;;;;5.80;4.70;;;;;;;16.66;100.00;101555.13;5055368;28;20443;-46
2023/07/08 04:54:24;;;;;;;5.13;4.57;;;;;;;16.69;100.00;101555.00;5073488;28;20056;-46
2023/07/08 04:56:50;;;;;;;6.20;5.00;;;;;;;16.71;100.00;101557.56;5073089;28;20047;-47
2023/07/08 04:59:17;;;;;;;5.00;4.50;;;;;;;16.67;100.00;101546.22;5073142;28;20127;-52
2023/07/08 05:01:43;;;;;;;4.50;4.03;;;;;;;16.29;100.00;101475.31;5043246;28;20033;-48
2023/07/08 05:04:13;;;;;;;8.75;4.28;;;;;;;16.79;100.00;101548.31;5053236;28;20472;-45
2023/07/08 05:06:39;;;;;;;4.97;4.40;;;;;;;16.81;100.00;101551.75;5053333;28;20037;-47
2023/07/08 05:09:04;;;;;;;5.10;4.07;;;;;;;16.82;100.00;101537.53;5051754;28;20286;-48
2023/07/08 05:11:30;;;;;;;7.18;4.05;;;;;;;16.81;100.00;101532.28;5052711;28;20053;-45
2023/07/08 05:13:55;;;;;;;5.22;4.57;;;;;;;16.95;100.00;101542.25;5052821;28;20029;-47
2023/07/08 05:16:21;;;;;;;4.53;4.10;;;;;;;16.99;100.00;101547.34;5055215;28;20479;-47
2023/07/08 05:18:46;;;;;;;5.07;3.95;;;;;;;17.05;100.00;101549.72;5054924;28;20028;-45
2023/07/08 05:21:12;;;;;;;4.25;3.42;;;;;;;16.71;100.00;101475.16;5072867;28;20040;-46
2023/07/08 05:23:37;;;;;;;5.63;4.00;;;;;;;17.19;100.00;101549.91;5071709;28;20498;-45
2023/07/08 05:26:04;;;;;;;4.53;4.13;;;;;;;17.26;100.00;101550.47;5054831;28;20033;-47
2023/07/08 05:28:29;;;;;;;5.95;4.40;;;;;;;17.29;100.00;101539.69;5054608;28;20064;-47
2023/07/08 05:30:55;;;;;;;6.00;4.13;;;;;;;17.34;100.00;101532.34;5072905;28;20068;-48
2023/07/08 05:33:22;;;;;;;7.35;4.25;;;;;;;17.41;100.00;101529.31;5072517;28;20033;-47
2023/07/08 05:35:47;;;;;;;6.18;4.43;;;;;;;17.34;100.00;101490.63;5070295;28;20040;-46
2023/07/08 05:38:12;;;;;;;4.70;4.15;;;;;;;17.82;100.00;101537.03;5072320;28;20434;-48
2023/07/08 05:40:37;;;;;;;4.93;4.10;;;;;;;17.58;100.00;101477.06;5072378;28;20055;-47
2023/07/08 05:43:03;;;;;;;5.78;4.22;;;;;;;17.76;100.00;101484.09;5072324;28;20044;-47
2023/07/08 05:45:28;;;;;;;5.20;4.43;;;;;;;18.23;100.00;101541.06;5071549;28;20090;-45
2023/07/08 05:47:53;;;;;;;4.38;3.97;;;;;;;18.33;100.00;101530.81;5072527;28;20032;-45
2023/07/08 05:50:19;;;;;;;4.65;4.10;;;;;;;18.48;100.00;101537.94;5072770;28;20041;-49
2023/07/08 05:52:44;;;;;;;5.90;4.60;;;;;;;18.62;100.00;101551.44;5061499;28;20094;-48
2023/07/08 05:55:09;;;;;;;4.32;3.92;;;;;;;18.68;100.00;101543.09;5052276;28;20124;-49
2023/07/08 05:57:35;;;;;;;4.13;3.53;;;;;;;18.51;100.00;101492.50;5049743;28;20041;-49
2023/07/08 06:00:00;;;;;;;4.65;4.07;;;;;;;18.58;100.00;101488.56;5052167;28;20481;-49
2023/07/08 06:02:26;;;;;;;5.47;3.78;;;;;;;19.12;100.00;101572.63;5052236;28;20037;-48
2023/07/08 06:04:52;;;;;;;6.47;3.70;;;;;;;19.21;100.00;101574.78;5034645;28;20029;-48
2023/07/08 06:07:17;;;;;;;5.15;3.92;;;;;;;19.26;100.00;101551.38;5050889;28;20056;-48
2023/07/08 06:09:43;;;;;;;8.10;4.60;;;;;;;19.11;100.00;101498.88;5051287;28;20037;-45
2023/07/08 06:12:09;;;;;;;6.57;4.15;;;;;;;19.57;100.00;101564.72;5050648;28;20053;-47
2023/07/08 06:14:34;;;;;;;5.57;3.58;;;;;;;19.35;100.00;101505.44;5034051;28;20033;-47
2023/07/08 06:16:59;;;;;;;8.63;3.95;;;;;;;19.79;100.00;101560.78;5052027;28;20037;-51
2023/07/08 06:19:25;;;;;;;5.80;3.10;;;;;;;19.90;100.00;101558.34;5052297;28;20499;-47
2023/07/08 06:21:50;;;;;;;4.20;3.80;;;;;;;19.97;100.00;101565.88;5051880;28;20052;-46
2023/07/08 06:24:15;;;;;;;4.18;3.53;;;;;;;19.99;100.00;101560.47;5051687;28;20475;-47
2023/07/08 06:26:41;;;;;;;4.90;3.67;;;;;;;20.12;100.00;101561.44;5034165;28;20119;-49
2023/07/08 06:29:06;;;;;;;5.15;3.25;;;;;;;20.26;100.00;101558.81;5051775;28;20040;-48
2023/07/08 06:31:31;;;;;;;4.90;3.83;;;;;;;20.36;100.00;101554.63;5051684;28;20025;-49
2023/07/08 06:33:57;;;;;;;6.40;4.05;;;;;;;20.51;100.00;101572.41;5052039;28;20041;-48
2023/07/08 06:36:22;;;;;;;4.30;3.10;;;;;;;20.28;100.00;101487.41;5051892;28;20068;-47
2023/07/08 06:38:48;;;;;;;3.58;3.28;;;;;;;20.32;100.00;101488.06;5051725;28;20037;-45
2023/07/08 06:41:13;;;;;;;5.05;3.88;;;;;;;20.50;100.00;101503.81;5051512;28;20041;-45
2023/07/08 06:43:39;;;;;;;3.63;3.28;;;;;;;20.91;100.00;101557.38;5051827;28;20051;-50
2023/07/08 06:46:06;;;;;;;4.25;3.30;;;;;;;20.84;100.00;101542.63;5051760;28;20035;-47
2023/07/08 06:48:31;;;;;;;3.92;3.22;;;;;;;20.83;100.00;101524.03;5051770;28;20037;-49
2023/07/08 06:50:57;;;;;;;5.60;3.80;;;;;;;21.17;100.00;101563.75;5051775;28;20033;-50
2023/07/08 06:53:23;;;;;;;8.73;3.17;;;;;;;20.93;100.00;101503.75;5051679;28;20041;-47
2023/07/08 06:55:49;;;;;;;3.92;3.22;;;;;;;20.75;100.00;101445.09;5051565;28;20092;-47
2023/07/08 06:58:14;;;;;;;5.18;3.10;;;;;;;21.63;100.00;101573.13;5019659;28;20469;-49
2023/07/08 07:00:44;;;;;;;4.75;3.45;;;;;;;21.51;100.00;101515.00;5055718;28;20033;-48
2023/07/08 07:03:10;;;;;;;3.67;3.20;;;;;;;21.94;100.00;101563.06;5055582;28;20049;-46
2023/07/08 07:05:35;;;;;;;6.82;3.28;;;;;;;22.00;100.00;101565.34;5055413;28;20032;-47
2023/07/08 07:08:01;;;;;;;6.05;3.45;;;;;;;22.17;100.00;101560.53;5037403;28;20032;-48
2023/07/08 07:10:26;;;;;;;5.10;3.17;;;;;;;21.99;100.00;101499.28;5053655;28;20136;-51
2023/07/08 07:12:51;;;;;;;6.25;3.05;;;;;;;22.44;100.00;101577.38;5055214;28;20393;-46
2023/07/08 07:15:16;;;;;;;5.35;3.90;;;;;;;22.57;100.00;101573.81;5055312;28;20025;-47
2023/07/08 07:17:42;;;;;;;4.30;2.85;;;;;;;22.35;100.00;101513.66;5055266;28;20037;-48
2023/07/08 07:20:08;;;;;;;7.25;3.55;;;;;;;22.79;100.00;101574.94;5055282;28;20083;-45
2023/07/08 07:22:34;;;;;;;5.18;3.50;;;;;;;22.93;100.00;101569.41;5053952;28;20033;-48
2023/07/08 07:25:00;;;;;;;4.53;3.25;;;;;;;22.67;100.00;101508.72;5054878;28;20385;-47
2023/07/08 07:27:25;;;;;;;5.18;3.53;;;;;;;23.15;100.00;101559.78;5055211;28;20040;-47
2023/07/08 07:29:52;;;;;;;5.00;2.78;;;;;;;22.84;100.00;101494.91;5055203;28;20083;-49
2023/07/08 07:32:18;;;;;;;5.00;3.53;;;;;;;23.35;100.00;101568.06;5054660;28;20439;-48
2023/07/08 07:34:47;;;;;;;4.75;3.60;;;;;;;23.49;100.00;101573.34;5054487;28;20476;-47
2023/07/08 07:37:13;;;;;;;3.78;2.83;;;;;;;23.38;100.00;101529.41;5054676;28;20059;-49
2023/07/08 07:39:39;;;;;;;5.82;3.63;;;;;;;23.79;100.00;101575.53;5053416;28;20059;-46
2023/07/08 07:42:05;;;;;;;3.53;3.22;;;;;;;23.65;100.00;101515.72;5054781;28;20039;-50
2023/07/08 07:44:31;;;;;;;5.75;3.33;;;;;;;24.29;100.00;101578.88;5053471;28;20037;-49
2023/07/08 07:46:56;;;;;;;6.15;3.10;;;;;;;24.28;100.00;101528.75;5054584;28;20033;-47
2023/07/08 07:49:21;;;;;;;3.80;3.40;;;;;;;24.88;100.00;101558.00;5054286;28;20112;-49
2023/07/08 07:51:48;;;;;;;4.68;3.70;;;;;;;25.31;100.00;101560.75;5053988;28;20136;-50
2023/07/08 07:54:14;;;;;;;5.43;3.05;;;;;;;25.44;100.00;101499.47;5052355;28;20086;-52
2023/07/08 07:56:39;;;;;;;7.35;4.55;;;;;;;25.99;100.00;101577.41;5036366;28;20045;-47
2023/07/08 07:59:04;;;;;;;3.38;3.05;;;;;;;26.33;100.00;101534.91;5053890;28;20037;-49
2023/07/08 08:01:30;;;;;;;3.78;3.17;;;;;;;26.85;100.00;101523.09;5053917;28;20041;-50
2023/07/08 08:03:55;;;;;;;4.20;3.72;;;;;;;27.12;100.00;101533.22;5054028;28;20125;-48
2023/07/08 08:06:20;;;;;;;5.53;4.05;;;;;;;27.43;100.00;101548.41;5053999;28;20068;-47
2023/07/08 08:08:45;;;;;;;6.60;3.45;;;;;;;28.01;100.00;101607.94;5035655;28;20132;-49
2023/07/08 08:11:12;;;;;;;4.03;3.63;;;;;;;28.19;100.00;101609.81;5052998;28;20075;-48
2023/07/08 08:13:37;;;;;;;5.43;3.97;;;;;;;28.24;100.00;101604.81;5054137;28;20089;-45
2023/07/08 08:16:03;;;;;;;4.40;4.00;;;;;;;28.34;100.00;101566.88;5053808;28;20096;-47
2023/07/08 08:18:29;;;;;;;6.55;4.22;;;;;;;28.95;100.00;101625.00;5054029;28;20033;-49
2023/07/08 08:20:54;;;;;;;6.22;4.43;;;;;;;28.68;100.00;101567.22;5035980;28;20037;-46
2023/07/08 08:23:19;;;;;;;4.60;4.20;;;;;;;28.87;100.00;101610.47;5054008;28;20040;-47
2023/07/08 08:25:45;;;;;;;5.25;4.53;;;;;;;28.92;100.00;101629.88;5053845;28;20035;-47
2023/07/08 08:28:10;;;;;;;5.38;4.18;;;;;;;28.95;100.00;101588.94;5053710;28;20091;-47
2023/07/08 08:30:35;;;;;;;4.78;4.25;;;;;;;29.30;100.00;101616.16;5053899;28;20048;-47
2023/07/08 08:33:01;;;;;;;6.15;4.28;;;;;;;29.19;100.00;101574.81;5052586;28;20064;-46
2023/07/08 08:35:27;;;;;;;7.38;4.63;;;;;;;29.38;100.00;101569.28;5053730;28;20040;-51
2023/07/08 08:37:53;;;;;;;4.18;3.78;;;;;;;29.89;100.00;101609.34;5053631;28;20041;-46
2023/07/08 08:40:19;;;;;;;8.05;4.68;;;;;;;29.94;100.00;101609.72;5053180;28;20033;-46
2023/07/08 08:42:51;;;;;;;7.68;4.07;;;;;;;30.04;100.00;101583.31;5053643;28;20384;-48
2023/07/08 08:45:20;;;;;;;6.25;4.55;;;;;;;30.15;100.00;101574.94;5053513;28;20090;-47
2023/07/08 08:47:48;;;;;;;8.00;4.05;;;;;;;30.45;100.00;101620.66;5052458;28;20068;-47
2023/07/08 08:50:19;;;;;;;8.27;3.90;;;;;;;30.62;100.00;101643.34;5052986;28;20032;-48
2023/07/08 08:52:45;;;;;;;6.00;4.13;;;;;;;30.26;100.00;101584.69;5053468;28;20071;-47
2023/07/08 08:55:14;;;;;;;5.63;4.22;;;;;;;30.26;100.00;101584.69;5052386;28;20118;-51
2023/07/08 08:58:11;;;;;;;5.55;3.85;;;;;;;30.58;100.00;101626.53;5052260;28;20036;-49
2023/07/08 09:01:11;;;;;;;9.00;3.90;;;;;;;30.84;100.00;101617.50;5042597;28;20099;-46
2023/07/08 09:04:08;;;;;;;5.22;3.88;;;;;;;31.01;100.00;101614.75;5024701;28;20559;-47
2023/07/08 09:06:34;;;;;;;6.35;4.40;;;;;;;31.03;100.00;101561.03;5034956;28;20045;-48
2023/07/08 09:09:22;;;;;;;7.30;4.88;;;;;;;30.67;100.00;101573.94;5035087;28;20036;-48
2023/07/08 09:12:11;;;;;;;5.75;4.65;;;;;;;31.13;100.00;101616.16;5051872;28;20052;-47
2023/07/08 09:14:36;;;;;;;8.45;5.47;;;;;;;30.89;100.00;101598.84;5051788;28;20076;-47
2023/07/08 09:17:15;;;;;;;8.73;5.20;;;;;;;31.10;100.00;101602.03;5052991;28;20073;-47
2023/07/08 09:20:17;;;;;;;6.53;4.60;;;;;;;30.90;100.00;101628.59;5052033;28;20031;-47
2023/07/08 09:22:59;;;;;;;8.13;4.43;;;;;;;31.37;100.00;101599.06;5032385;28;20104;-51
2023/07/08 09:25:34;;;;;;;5.00;4.50;;;;;;;31.38;100.00;101575.44;5051190;28;20146;-49
2023/07/08 09:27:59;;;;;;;10.20;4.50;;;;;;;30.95;100.00;101563.72;5050795;28;20033;-49
2023/07/08 09:30:26;;;;;;;7.25;4.50;;;;;;;31.38;100.00;101622.50;5052250;28;20044;-48
2023/07/08 09:32:51;;;;;;;5.30;4.70;;;;;;;31.69;100.00;101593.72;5052736;28;20091;-49
2023/07/08 09:35:39;;;;;;;6.25;4.57;;;;;;;31.93;100.00;101613.81;5052475;28;20388;-48
2023/07/08 09:38:09;;;;;;;7.65;4.45;;;;;;;31.91;100.00;101591.31;5034399;28;20041;-49
2023/07/08 09:40:34;;;;;;;7.47;4.47;;;;;;;32.31;100.00;101611.25;5052553;28;20477;-49
2023/07/08 09:43:15;;;;;;;5.47;4.50;;;;;;;32.35;100.00;101633.56;5018492;28;20119;-48
2023/07/08 09:45:44;;;;;;;6.20;4.68;;;;;;;32.66;100.00;101618.22;5052296;28;20406;-48
2023/07/08 09:48:20;;;;;;;6.10;4.15;;;;;;;32.41;100.00;101563.91;5052096;28;20028;-46
2023/07/08 09:50:48;;;;;;;7.35;4.80;;;;;;;32.83;100.00;101580.88;5051867;28;20196;-48
2023/07/08 09:53:14;;;;;;;6.53;4.38;;;;;;;32.86;100.00;101615.97;5034606;28;20037;-48
2023/07/08 09:55:40;;;;;;;5.07;4.38;;;;;;;32.37;100.00;101568.84;5034429;28;20078;-50
2023/07/08 09:58:05;;;;;;;5.93;4.30;;;;;;;32.38;100.00;101566.97;5052049;28;20109;-48
2023/07/08 10:00:39;;;;;;;7.32;4.70;;;;;;;32.95;100.00;101631.28;5034125;28;20024;-49
2023/07/08 10:03:19;;;;;;;7.47;5.10;;;;;;;32.89;100.00;101573.84;5052302;28;20048;-47
2023/07/08 10:05:46;;;;;;;6.03;4.28;;;;;;;33.44;100.00;101629.19;5034496;28;20396;-52
2023/07/08 10:08:20;;;;;;;8.55;5.18;;;;;;;33.74;100.00;101632.97;5052464;28;20036;-50
2023/07/08 10:11:17;;;;;;;5.95;5.22;;;;;;;34.18;100.00;101625.78;5033677;28;20660;-48
2023/07/08 10:13:45;;;;;;;6.97;5.60;;;;;;;34.06;100.00;101607.28;5051264;28;20098;-47
2023/07/08 10:16:14;;;;;;;5.20;4.70;;;;;;;34.06;100.00;101618.22;5051148;28;20032;-50
2023/07/08 10:18:39;;;;;;;9.05;4.80;;;;;;;33.47;100.00;101582.44;5052345;28;20033;-50
2023/07/08 10:21:30;;;;;;;7.40;5.13;;;;;;;33.69;100.00;101600.72;5051024;28;20395;-52
2023/07/08 10:24:20;;;;;;;6.78;5.03;;;;;;;33.91;100.00;101624.47;5050648;28;20025;-50
2023/07/08 10:27:00;;;;;;;8.65;5.88;;;;;;;34.03;100.00;101619.44;5052269;28;20513;-49
2023/07/08 10:30:11;;;;;;;7.00;4.90;;;;;;;34.20;100.00;101576.44;5051005;28;20082;-50
2023/07/08 10:33:14;;;;;;;6.72;5.15;;;;;;;34.10;100.00;101576.69;5053658;28;20498;-49
2023/07/08 10:36:17;;;;;;;9.40;5.40;;;;;;;34.34;100.00;101638.47;5038071;28;20120;-46
2023/07/08 10:39:09;;;;;;;7.85;5.38;;;;;;;33.87;100.00;101582.16;5038060;28;20162;-50
2023/07/08 10:41:50;;;;;;;6.43;5.82;;;;;;;34.37;100.00;101624.44;5055955;28;20025;-51
2023/07/08 10:44:36;;;;;;;6.97;5.20;;;;;;;34.83;100.00;101627.91;5054469;28;20041;-50
2023/07/08 10:47:01;;;;;;;7.97;5.40;;;;;;;35.03;100.00;101639.97;5054350;28;20037;-52
2023/07/08 10:49:50;;;;;;;7.50;6.75;;;;;;;34.95;99.52;101588.09;5055017;28;20032;-48
2023/07/08 10:52:40;;;;;;;7.05;5.32;;;;;;;34.86;97.79;101641.19;5054031;28;20047;-47
2023/07/08 10:55:29;;;;;;;10.17;5.73;;;;;;;34.81;98.11;101591.69;5054188;28;20115;-49
2023/07/08 10:58:03;;;;;;;7.65;6.00;;;;;;;35.21;96.18;101636.88;5054226;28;20437;-49
2023/07/08 11:00:46;;;;;;;7.22;6.53;;;;;;;34.93;95.05;101592.91;5055757;28;20078;-48
2023/07/08 11:03:31;;;;;;;7.15;5.38;;;;;;;35.20;94.97;101640.66;5054273;28;20060;-52
2023/07/08 11:06:15;;;;;;;7.05;5.93;;;;;;;34.88;92.94;101639.16;5053812;28;20490;-49
2023/07/08 11:08:45;;;;;;;8.98;5.75;;;;;;;35.17;93.49;101628.22;5036872;28;20487;-50
2023/07/08 11:11:33;;;;;;;10.10;6.60;;;;;;;35.46;96.16;101624.56;5053810;28;20049;-49
2023/07/08 11:14:10;;;;;;;8.82;6.32;;;;;;;34.98;92.41;101566.69;5053663;28;20468;-47
2023/07/08 11:17:05;;;;;;;9.15;6.18;;;;;;;35.39;100.00;101627.22;5053789;28;20048;-50
2023/07/08 11:19:40;;;;;;;10.18;6.35;;;;;;;35.93;82.81;101624.03;5055108;28;20032;-49
2023/07/08 11:22:10;;;;;;;8.85;6.75;;;;;;;36.06;93.62;101562.00;5037446;28;20029;-49
2023/07/08 11:24:43;;;;;;;9.30;6.47;;;;;;;36.85;87.41;101631.13;5053599;28;20032;-48
2023/07/08 11:27:18;;;;;;;8.90;6.78;;;;;;;36.93;93.00;101621.88;5053846;28;20071;-48